createdAt,value
2019-03-18T00:00:02.021Z,2.58
2019-03-18T00:02:32.139Z,2.61
2019-03-18T00:05:00.345Z,2.59
2019-03-18T00:07:28.382Z,2.59
2019-03-18T00:09:56.247Z,2.67
2019-03-18T00:12:24.324Z,2.67
2019-03-18T00:15:01.262Z,2.69
2019-03-18T00:17:21.899Z,2.65
2019-03-18T00:19:49.864Z,2.59
2019-03-18T00:22:17.670Z,2.61
2019-03-18T00:24:45.499Z,2.42
2019-03-18T00:27:13.261Z,2.21
2019-03-18T00:29:41.027Z,2.09
2019-03-18T00:32:08.888Z,2.03
2019-03-18T00:34:36.657Z,2.04
2019-03-18T00:37:04.518Z,2.09
2019-03-18T00:39:32.384Z,2.10
2019-03-18T00:42:00.258Z,2.24
2019-03-18T00:44:28.013Z,2.06
2019-03-18T00:46:55.780Z,2.21
2019-03-18T00:49:23.537Z,2.15
2019-03-18T00:51:51.508Z,2.10
2019-03-18T00:54:19.888Z,2.22
2019-03-18T00:56:47.958Z,2.26
2019-03-18T00:59:15.723Z,2.26
2019-03-18T01:01:44.203Z,2.26
2019-03-18T01:04:11.866Z,2.41
2019-03-18T01:06:39.730Z,2.21
2019-03-18T01:09:07.596Z,2.18
2019-03-18T01:11:35.362Z,2.14
2019-03-18T01:14:03.119Z,2.12
2019-03-18T01:16:30.886Z,2.06
2019-03-18T01:18:58.650Z,2.11
2019-03-18T01:21:26.413Z,2.06
2019-03-18T01:23:54.176Z,1.96
2019-03-18T01:26:21.947Z,1.68
2019-03-18T01:28:49.881Z,1.68
2019-03-18T01:31:17.672Z,1.55
2019-03-18T01:33:45.435Z,1.44
2019-03-18T01:36:13.302Z,1.42
2019-03-18T01:38:41.177Z,1.35
2019-03-18T01:41:08.933Z,1.47
2019-03-18T01:43:36.802Z,1.63
2019-03-18T01:46:04.568Z,1.71
2019-03-18T01:48:32.530Z,1.53
2019-03-18T01:51:00.398Z,1.48
2019-03-18T01:53:28.673Z,1.46
2019-03-18T01:55:56.450Z,1.31
2019-03-18T01:58:24.197Z,1.21
2019-03-18T02:00:52.580Z,1.19
2019-03-18T02:03:20.240Z,1.22
2019-03-18T02:05:48.205Z,1.39
2019-03-18T02:08:16.076Z,1.11
2019-03-18T02:10:43.843Z,1.18
2019-03-18T02:13:11.803Z,0.73
2019-03-18T02:15:39.574Z,0.82
2019-03-18T02:18:07.329Z,1.05
2019-03-18T02:20:35.303Z,1.22
2019-03-18T02:23:03.068Z,1.19
2019-03-18T02:25:30.843Z,1.17
2019-03-18T02:27:58.598Z,1.19
2019-03-18T02:30:26.359Z,1.21
2019-03-18T02:32:54.120Z,1.20
2019-03-18T02:35:22.097Z,1.27
2019-03-18T02:37:49.969Z,1.27
2019-03-18T02:40:17.724Z,1.23
2019-03-18T02:42:45.482Z,1.13
2019-03-18T02:45:13.250Z,1.19
2019-03-18T02:47:41.027Z,1.34
2019-03-18T02:50:08.672Z,1.41
2019-03-18T02:52:37.156Z,1.40
2019-03-18T02:55:06.144Z,1.39
2019-03-18T02:57:33.813Z,1.37
2019-03-18T03:00:01.689Z,1.23
2019-03-18T03:02:30.780Z,1.05
2019-03-18T03:04:58.738Z,1.04
2019-03-18T03:07:26.508Z,0.92
2019-03-18T03:09:54.271Z,1.16
2019-03-18T03:12:22.028Z,1.22
2019-03-18T03:14:49.790Z,1.10
2019-03-18T03:17:21.419Z,1.12
2019-03-18T03:19:47.260Z,1.26
2019-03-18T03:22:15.027Z,1.30
2019-03-18T03:24:42.804Z,1.09
2019-03-18T03:27:10.557Z,1.26
2019-03-18T03:29:38.228Z,1.31
2019-03-18T03:32:05.986Z,1.41
2019-03-18T03:34:33.770Z,1.49
2019-03-18T03:37:01.714Z,1.48
2019-03-18T03:39:29.680Z,1.55
2019-03-18T03:41:57.455Z,1.35
2019-03-18T03:44:25.107Z,1.33
2019-03-18T03:46:52.866Z,1.38
2019-03-18T03:49:20.636Z,1.38
2019-03-18T03:51:48.504Z,1.25
2019-03-18T03:54:17.191Z,1.16
2019-03-18T03:56:44.738Z,1.05
2019-03-18T03:59:12.513Z,0.94
2019-03-18T04:01:41.603Z,0.89
2019-03-18T04:04:09.371Z,0.86
2019-03-18T04:06:37.336Z,1.16
2019-03-18T04:09:05.308Z,1.11
2019-03-18T04:11:33.281Z,1.13
2019-03-18T04:14:01.645Z,1.25
2019-03-18T04:16:29.616Z,1.37
2019-03-18T04:18:57.389Z,1.48
2019-03-18T04:21:25.363Z,1.56
2019-03-18T04:23:53.216Z,1.37
2019-03-18T04:26:21.289Z,1.53
2019-03-18T04:28:49.157Z,1.76
2019-03-18T04:31:17.225Z,1.98
2019-03-18T04:33:45.195Z,2.09
2019-03-18T04:36:13.265Z,2.29
2019-03-18T04:38:42.258Z,2.34
2019-03-18T04:41:10.224Z,2.45
2019-03-18T04:43:38.192Z,2.38
2019-03-18T04:46:06.669Z,2.46
2019-03-18T04:48:34.848Z,2.42
2019-03-18T04:51:02.823Z,2.61
2019-03-18T04:53:31.095Z,2.88
2019-03-18T04:55:59.057Z,3.02
2019-03-18T04:58:28.164Z,3.21
2019-03-18T05:00:56.430Z,3.14
2019-03-18T05:03:24.714Z,3.30
2019-03-18T05:05:52.674Z,3.60
2019-03-18T05:08:20.643Z,3.45
2019-03-18T05:10:48.613Z,3.56
2019-03-18T05:13:16.679Z,3.39
2019-03-18T05:15:44.752Z,3.78
2019-03-18T05:18:13.456Z,3.78
2019-03-18T05:20:41.510Z,3.79
2019-03-18T05:23:09.479Z,3.55
2019-03-18T05:25:37.562Z,3.49
2019-03-18T05:28:05.725Z,3.44
2019-03-18T05:30:33.797Z,3.59
2019-03-18T05:33:01.861Z,3.68
2019-03-18T05:35:29.933Z,3.84
2019-03-18T05:37:57.902Z,3.90
2019-03-18T05:40:25.975Z,3.82
2019-03-18T05:42:53.937Z,3.78
2019-03-18T05:45:21.916Z,3.97
2019-03-18T05:47:49.980Z,3.91
2019-03-18T05:50:17.952Z,3.81
2019-03-18T05:52:46.029Z,3.87
2019-03-18T05:55:14.397Z,3.93
2019-03-18T05:57:42.117Z,4.12
2019-03-18T06:00:11.357Z,4.19
2019-03-18T06:02:39.535Z,4.23
2019-03-18T06:05:07.303Z,4.29
2019-03-18T06:07:36.303Z,4.34
2019-03-18T06:10:07.232Z,4.23
2019-03-18T06:12:35.300Z,4.33
2019-03-18T06:15:06.463Z,4.52
2019-03-18T06:17:34.010Z,4.73
2019-03-18T06:20:03.314Z,5.03
2019-03-18T06:22:30.755Z,5.04
2019-03-18T06:24:58.725Z,4.97
2019-03-18T06:27:26.589Z,5.19
2019-03-18T06:29:54.557Z,5.22
2019-03-18T06:32:22.531Z,5.33
2019-03-18T06:34:50.392Z,5.41
2019-03-18T06:37:18.572Z,5.56
2019-03-18T06:39:46.638Z,5.60
2019-03-18T06:42:14.613Z,5.50
2019-03-18T06:44:42.576Z,5.77
2019-03-18T06:47:10.598Z,6.01
2019-03-18T06:49:38.612Z,6.08
2019-03-18T06:52:06.687Z,6.32
2019-03-18T06:54:34.962Z,6.52
2019-03-18T06:57:03.853Z,6.48
2019-03-18T06:59:32.131Z,6.51
2019-03-18T07:02:00.198Z,6.45
2019-03-18T07:04:27.758Z,6.56
2019-03-18T07:06:55.736Z,6.58
2019-03-18T07:09:23.692Z,6.35
2019-03-18T07:11:51.660Z,6.38
2019-03-18T07:14:19.631Z,6.28
2019-03-18T07:16:47.599Z,6.25
2019-03-18T07:19:15.568Z,6.53
2019-03-18T07:21:43.558Z,6.75
2019-03-18T07:24:11.506Z,6.95
2019-03-18T07:26:39.577Z,6.90
2019-03-18T07:29:07.339Z,7.24
2019-03-18T07:31:35.411Z,7.24
2019-03-18T07:34:03.390Z,7.38
2019-03-18T07:36:31.348Z,7.50
2019-03-18T07:38:59.313Z,7.38
2019-03-18T07:41:27.210Z,7.42
2019-03-18T07:43:55.252Z,7.42
2019-03-18T07:46:23.223Z,7.58
2019-03-18T07:48:51.188Z,8.02
2019-03-18T07:51:19.059Z,7.90
2019-03-18T07:53:47.850Z,7.94
2019-03-18T07:56:15.404Z,7.74
2019-03-18T07:58:43.478Z,7.92
2019-03-18T08:01:11.867Z,7.97
2019-03-18T08:03:41.566Z,7.90
2019-03-18T08:06:09.528Z,7.71
2019-03-18T08:08:37.612Z,7.95
2019-03-18T08:11:05.568Z,8.03
2019-03-18T08:13:33.534Z,8.38
2019-03-18T08:16:01.403Z,8.61
2019-03-18T08:18:29.779Z,8.53
2019-03-18T08:20:57.753Z,8.62
2019-03-18T08:23:25.820Z,8.54
2019-03-18T08:25:53.901Z,8.53
2019-03-18T08:28:22.000Z,8.59
2019-03-18T08:30:49.931Z,8.70
2019-03-18T08:33:17.903Z,8.79
2019-03-18T08:35:46.808Z,8.73
2019-03-18T08:38:14.968Z,8.83
2019-03-18T08:40:42.729Z,8.79
2019-03-18T08:43:10.692Z,8.91
2019-03-18T08:45:38.669Z,9.12
2019-03-18T08:48:06.637Z,9.00
2019-03-18T08:50:34.811Z,8.93
2019-03-18T08:53:03.189Z,8.79
2019-03-18T08:55:31.052Z,8.94
2019-03-18T08:57:59.228Z,9.09
2019-03-18T09:00:27.299Z,9.11
2019-03-18T09:02:56.455Z,9.11
2019-03-18T09:05:24.255Z,9.44
2019-03-18T09:07:52.244Z,9.58
2019-03-18T09:10:20.196Z,9.54
2019-03-18T09:12:48.160Z,9.68
2019-03-18T09:15:16.030Z,9.54
2019-03-18T09:17:45.019Z,9.68
2019-03-18T09:20:14.323Z,9.71
2019-03-18T09:22:42.187Z,9.81
2019-03-18T09:25:10.672Z,9.79
2019-03-18T09:27:39.248Z,9.84
2019-03-18T09:30:16.227Z,9.90
2019-03-18T09:32:43.786Z,9.85
2019-03-18T09:35:11.865Z,9.78
2019-03-18T09:37:40.032Z,9.52
2019-03-18T09:40:11.072Z,9.58
2019-03-18T09:42:38.947Z,9.79
2019-03-18T09:45:09.872Z,9.90
2019-03-18T09:47:37.640Z,9.84
2019-03-18T09:50:07.148Z,9.85
2019-03-18T09:52:34.808Z,10.02
2019-03-18T09:55:05.182Z,10.07
2019-03-18T09:57:33.102Z,10.17
2019-03-18T10:00:00.974Z,10.04
2019-03-18T10:02:29.138Z,9.84
2019-03-18T10:04:57.003Z,10.13
2019-03-18T10:07:25.072Z,10.24
2019-03-18T10:09:53.059Z,10.50
2019-03-18T10:12:21.111Z,10.17
2019-03-18T10:14:49.084Z,10.28
2019-03-18T10:17:17.050Z,10.32
2019-03-18T10:19:45.021Z,10.27
2019-03-18T10:22:12.984Z,10.31
2019-03-18T10:24:40.955Z,10.31
2019-03-18T10:27:09.006Z,10.41
2019-03-18T10:29:36.998Z,10.33
2019-03-18T10:32:05.082Z,10.45
2019-03-18T10:34:33.036Z,10.58
2019-03-18T10:37:01.111Z,10.59
2019-03-18T10:39:29.278Z,10.47
2019-03-18T10:41:57.248Z,10.51
2019-03-18T10:44:25.217Z,10.48
2019-03-18T10:46:53.189Z,10.48
2019-03-18T10:49:21.260Z,10.55
2019-03-18T10:51:49.225Z,10.75
2019-03-18T10:54:29.979Z,10.64
2019-03-18T10:56:48.035Z,10.72
2019-03-18T10:59:16.203Z,10.55
2019-03-18T11:01:44.475Z,10.61
2019-03-18T11:04:12.244Z,10.70
2019-03-18T11:06:40.218Z,10.85
2019-03-18T11:09:08.282Z,10.49
2019-03-18T11:11:36.255Z,10.54
2019-03-18T11:14:04.319Z,10.67
2019-03-18T11:16:32.290Z,10.81
2019-03-18T11:19:00.263Z,10.79
2019-03-18T11:21:28.231Z,10.94
2019-03-18T11:23:56.192Z,10.83
2019-03-18T11:26:24.983Z,10.75
2019-03-18T11:28:52.748Z,10.68
2019-03-18T11:31:20.716Z,11.06
2019-03-18T11:33:48.788Z,11.13
2019-03-18T11:36:16.857Z,11.11
2019-03-18T11:38:44.744Z,11.16
2019-03-18T11:41:12.694Z,11.06
2019-03-18T11:43:40.663Z,11.15
2019-03-18T11:46:10.365Z,11.22
2019-03-18T11:48:38.953Z,11.29
2019-03-18T11:51:07.023Z,11.11
2019-03-18T11:53:35.300Z,10.99
2019-03-18T11:56:03.679Z,11.18
2019-03-18T11:58:31.575Z,11.26
2019-03-18T12:01:00.127Z,11.21
2019-03-18T12:03:28.200Z,11.05
2019-03-18T12:05:56.265Z,11.14
2019-03-18T12:08:24.132Z,11.18
2019-03-18T12:10:52.005Z,10.95
2019-03-18T12:13:20.993Z,10.94
2019-03-18T12:15:48.958Z,11.03
2019-03-18T12:18:17.031Z,11.14
2019-03-18T12:20:44.995Z,11.14
2019-03-18T12:23:13.171Z,11.30
2019-03-18T12:25:41.142Z,11.34
2019-03-18T12:28:09.213Z,11.28
2019-03-18T12:30:37.998Z,11.39
2019-03-18T12:33:06.055Z,11.06
2019-03-18T12:35:34.144Z,11.34
2019-03-18T12:38:02.222Z,11.30
2019-03-18T12:40:29.978Z,11.39
2019-03-18T12:42:58.664Z,11.27
2019-03-18T12:45:26.632Z,11.34
2019-03-18T12:47:55.420Z,11.32
2019-03-18T12:50:55.063Z,11.30
2019-03-18T12:52:55.496Z,11.44
2019-03-18T12:55:24.353Z,11.33
2019-03-18T12:57:52.309Z,11.40
2019-03-18T13:00:29.397Z,11.43
2019-03-18T13:02:57.384Z,11.28
2019-03-18T13:05:26.871Z,11.38
2019-03-18T13:07:54.833Z,11.47
2019-03-18T13:10:23.524Z,11.44
2019-03-18T13:12:51.484Z,11.52
2019-03-18T13:15:19.676Z,11.40
2019-03-18T13:17:47.529Z,11.38
2019-03-18T13:20:20.616Z,11.48
2019-03-18T13:22:48.072Z,11.35
2019-03-18T13:25:16.144Z,11.28
2019-03-18T13:27:44.212Z,11.36
2019-03-18T13:30:16.175Z,11.51
2019-03-18T13:32:44.260Z,11.36
2019-03-18T13:35:12.726Z,11.39
2019-03-18T13:37:42.029Z,11.47
2019-03-18T13:40:14.603Z,11.45
2019-03-18T13:42:42.104Z,11.52
2019-03-18T13:45:20.069Z,11.64
2019-03-18T13:47:47.931Z,11.51
2019-03-18T13:50:19.695Z,11.52
2019-03-18T13:52:47.500Z,11.58
2019-03-18T13:55:15.806Z,11.44
2019-03-18T13:57:43.698Z,11.32
2019-03-18T14:00:19.343Z,11.40
2019-03-18T14:02:47.621Z,11.47
2019-03-18T14:05:16.612Z,11.47
2019-03-18T14:07:44.582Z,11.50
2019-03-18T14:10:15.316Z,11.41
2019-03-18T14:12:43.397Z,11.35
2019-03-18T14:15:13.363Z,11.47
2019-03-18T14:17:40.859Z,11.40
2019-03-18T14:20:11.383Z,11.42
2019-03-18T14:22:39.046Z,11.41
2019-03-18T14:25:08.450Z,11.42
2019-03-18T14:27:36.422Z,11.36
2019-03-18T14:30:10.953Z,11.36
2019-03-18T14:32:38.917Z,11.42
2019-03-18T14:35:07.802Z,11.35
2019-03-18T14:37:35.569Z,11.33
2019-03-18T14:40:10.497Z,11.27
2019-03-18T14:42:38.586Z,11.16
2019-03-18T14:45:19.236Z,11.24
2019-03-18T14:47:47.331Z,11.13
2019-03-18T14:50:16.192Z,11.14
2019-03-18T14:52:44.064Z,11.23
2019-03-18T14:55:14.748Z,11.09
2019-03-18T14:57:42.262Z,11.05
2019-03-18T15:00:17.040Z,11.03
2019-03-18T15:02:45.350Z,11.09
2019-03-18T15:05:14.251Z,11.05
2019-03-18T15:07:41.907Z,10.96
2019-03-18T15:10:11.819Z,10.84
2019-03-18T15:12:40.314Z,10.82
2019-03-18T15:15:12.059Z,10.81
2019-03-18T15:17:40.028Z,10.78
2019-03-18T15:20:12.372Z,10.68
2019-03-18T15:22:39.959Z,10.60
2019-03-18T15:25:13.724Z,10.61
2019-03-18T15:27:41.623Z,10.57
2019-03-18T15:30:12.364Z,10.44
2019-03-18T15:32:39.941Z,10.46
2019-03-18T15:35:09.425Z,10.36
2019-03-18T15:37:37.596Z,10.32
2019-03-18T15:40:11.913Z,10.28
2019-03-18T15:42:39.685Z,10.22
2019-03-18T15:45:10.306Z,10.06
2019-03-18T15:47:38.284Z,10.05
2019-03-18T15:50:13.038Z,9.96
2019-03-18T15:52:41.385Z,9.89
2019-03-18T15:55:09.562Z,9.88
2019-03-18T15:57:37.216Z,9.90
2019-03-18T16:00:11.128Z,9.79
2019-03-18T16:02:39.097Z,9.69
2019-03-18T16:05:07.270Z,9.68
2019-03-18T16:07:35.232Z,9.57
2019-03-18T16:10:06.288Z,9.55
2019-03-18T16:12:33.936Z,9.39
2019-03-18T16:15:01.906Z,9.39
2019-03-18T16:17:30.077Z,9.37
2019-03-18T16:19:58.057Z,9.35
2019-03-18T16:22:26.015Z,9.42
2019-03-18T16:24:54.009Z,9.31
2019-03-18T16:27:22.066Z,9.24
2019-03-18T16:29:50.022Z,9.24
2019-03-18T16:32:17.991Z,9.20
2019-03-18T16:34:45.963Z,9.23
2019-03-18T16:37:14.140Z,9.29
2019-03-18T16:39:42.311Z,9.24
2019-03-18T16:42:09.970Z,9.22
2019-03-18T16:44:38.149Z,9.13
2019-03-18T16:47:06.217Z,9.08
2019-03-18T16:49:34.078Z,9.06
2019-03-18T16:52:02.046Z,9.07
2019-03-18T16:54:30.731Z,8.99
2019-03-18T16:56:58.597Z,9.02
2019-03-18T16:59:26.565Z,8.95
2019-03-18T17:01:54.944Z,8.93
2019-03-18T17:04:23.028Z,8.82
2019-03-18T17:06:51.191Z,8.85
2019-03-18T17:09:19.259Z,8.82
2019-03-18T17:11:47.230Z,8.76
2019-03-18T17:14:15.103Z,8.78
2019-03-18T17:16:43.180Z,8.69
2019-03-18T17:19:11.255Z,8.62
2019-03-18T17:21:39.211Z,8.58
2019-03-18T17:24:07.280Z,8.61
2019-03-18T17:26:35.247Z,8.55
2019-03-18T17:29:03.932Z,8.57
2019-03-18T17:31:33.642Z,8.56
2019-03-18T17:34:01.712Z,8.52
2019-03-18T17:36:30.600Z,8.49
2019-03-18T17:38:58.576Z,8.36
2019-03-18T17:41:26.538Z,8.31
2019-03-18T17:43:54.413Z,8.37
2019-03-18T17:46:22.374Z,8.34
2019-03-18T17:48:50.344Z,8.24
2019-03-18T17:51:18.308Z,8.23
2019-03-18T17:53:46.895Z,8.20
2019-03-18T17:56:15.079Z,8.17
2019-03-18T17:58:43.033Z,8.11
2019-03-18T18:01:11.920Z,8.15
2019-03-18T18:03:39.696Z,8.07
2019-03-18T18:06:07.756Z,8.08
2019-03-18T18:08:35.837Z,8.06
2019-03-18T18:11:04.314Z,7.98
2019-03-18T18:13:32.286Z,8.04
2019-03-18T18:16:00.449Z,8.02
2019-03-18T18:18:28.735Z,8.01
2019-03-18T18:20:56.700Z,7.99
2019-03-18T18:23:24.982Z,8.03
2019-03-18T18:25:53.965Z,7.90
2019-03-18T18:28:22.141Z,7.90
2019-03-18T18:30:50.108Z,7.90
2019-03-18T18:33:18.487Z,7.95
2019-03-18T18:35:46.762Z,7.98
2019-03-18T18:38:15.139Z,7.96
2019-03-18T18:40:43.108Z,8.04
2019-03-18T18:43:11.106Z,8.03
2019-03-18T18:45:39.251Z,7.97
2019-03-18T18:48:07.329Z,8.07
2019-03-18T18:50:35.394Z,7.97
2019-03-18T18:53:03.977Z,7.88
2019-03-18T18:55:31.737Z,7.76
2019-03-18T18:58:01.558Z,7.68
2019-03-18T19:00:29.211Z,7.59
2019-03-18T19:02:57.702Z,7.54
2019-03-18T19:05:29.552Z,7.50
2019-03-18T19:07:57.864Z,7.44
2019-03-18T19:10:26.109Z,7.45
2019-03-18T19:12:54.171Z,7.30
2019-03-18T19:15:30.642Z,7.29
2019-03-18T19:17:58.409Z,7.11
2019-03-18T19:20:26.482Z,7.02
2019-03-18T19:22:54.545Z,7.01
2019-03-18T19:25:22.520Z,6.94
2019-03-18T19:27:50.493Z,6.80
2019-03-18T19:30:19.686Z,6.79
2019-03-18T19:32:47.388Z,6.77
2019-03-18T19:35:16.029Z,6.64
2019-03-18T19:37:44.696Z,6.63
2019-03-18T19:40:19.963Z,6.66
2019-03-18T19:42:47.916Z,6.62
2019-03-18T19:45:16.091Z,6.55
2019-03-18T19:47:44.374Z,6.50
2019-03-18T19:50:18.902Z,6.44
2019-03-18T19:52:46.652Z,6.40
2019-03-18T19:55:15.042Z,6.39
2019-03-18T19:57:43.005Z,6.33
2019-03-18T20:00:18.001Z,6.23
2019-03-18T20:02:46.419Z,6.24
2019-03-18T20:05:15.277Z,6.16
2019-03-18T20:07:44.001Z,6.04
2019-03-18T20:10:14.313Z,6.06
2019-03-18T20:12:41.867Z,6.04
2019-03-18T20:15:14.054Z,6.02
2019-03-18T20:17:41.544Z,5.98
2019-03-18T20:20:13.965Z,5.91
2019-03-18T20:22:41.944Z,5.88
2019-03-18T20:25:11.143Z,5.92
2019-03-18T20:27:38.796Z,5.95
2019-03-18T20:30:20.693Z,5.85
2019-03-18T20:32:48.657Z,5.78
2019-03-18T20:35:20.927Z,5.77
2019-03-18T20:37:51.368Z,5.79
2019-03-18T20:40:18.712Z,5.73
2019-03-18T20:42:46.573Z,5.68
2019-03-18T20:45:17.003Z,5.61
2019-03-18T20:47:44.558Z,5.62
2019-03-18T20:50:17.234Z,5.64
2019-03-18T20:52:44.797Z,5.62
2019-03-18T20:55:14.605Z,5.60
2019-03-18T20:57:42.579Z,5.59
2019-03-18T21:00:16.587Z,5.53
2019-03-18T21:02:44.863Z,5.53
2019-03-18T21:05:12.625Z,5.45
2019-03-18T21:07:40.604Z,5.35
2019-03-18T21:10:10.718Z,5.31
2019-03-18T21:12:38.170Z,5.25
2019-03-18T21:15:08.288Z,5.27
2019-03-18T21:17:36.158Z,5.27
2019-03-18T21:20:10.474Z,5.27
2019-03-18T21:22:38.337Z,5.27
2019-03-18T21:25:07.232Z,5.25
2019-03-18T21:27:35.304Z,5.17
2019-03-18T21:30:11.769Z,5.16
2019-03-18T21:32:39.839Z,5.10
2019-03-18T21:35:08.728Z,5.08
2019-03-18T21:37:36.392Z,5.01
2019-03-18T21:40:07.948Z,4.98
2019-03-18T21:42:35.702Z,4.93
2019-03-18T21:45:06.747Z,4.94
2019-03-18T21:47:34.720Z,4.99
2019-03-18T21:50:05.144Z,4.96
2019-03-18T21:52:32.802Z,4.86
2019-03-18T21:55:01.181Z,4.87
2019-03-18T21:57:29.146Z,4.84
2019-03-18T21:59:57.613Z,4.79
2019-03-18T22:02:26.115Z,4.79
2019-03-18T22:04:54.180Z,4.73
2019-03-18T22:07:22.255Z,4.67
2019-03-18T22:09:50.223Z,4.52
2019-03-18T22:12:18.191Z,4.50
2019-03-18T22:14:46.365Z,4.53
2019-03-18T22:17:14.335Z,4.43
2019-03-18T22:19:43.022Z,4.46
2019-03-18T22:22:10.986Z,4.41
2019-03-18T22:24:45.383Z,4.44
2019-03-18T22:27:08.764Z,4.26
2019-03-18T22:29:36.631Z,4.32
2019-03-18T22:32:04.605Z,4.30
2019-03-18T22:34:32.466Z,4.24
2019-03-18T22:37:00.539Z,4.26
2019-03-18T22:39:28.607Z,4.24
2019-03-18T22:41:56.577Z,4.22
2019-03-18T22:44:24.644Z,4.27
2019-03-18T22:46:52.819Z,4.28
2019-03-18T22:49:20.894Z,4.18
2019-03-18T22:51:48.961Z,4.14
2019-03-18T22:54:17.448Z,4.03
2019-03-18T22:56:45.310Z,4.08
2019-03-18T22:59:13.277Z,4.09
2019-03-18T23:01:42.065Z,4.02
2019-03-18T23:04:10.141Z,3.93
2019-03-18T23:06:38.104Z,3.97
2019-03-18T23:09:06.075Z,3.98
2019-03-18T23:11:34.040Z,3.91
2019-03-18T23:14:02.016Z,3.91
2019-03-18T23:16:29.980Z,3.89
2019-03-18T23:18:57.847Z,3.85
2019-03-18T23:21:25.603Z,3.84
2019-03-18T23:23:53.478Z,3.74
2019-03-18T23:26:21.444Z,3.81
2019-03-18T23:28:49.310Z,3.72
2019-03-18T23:31:17.178Z,3.78
2019-03-18T23:33:45.143Z,3.78
2019-03-18T23:36:13.216Z,3.76
2019-03-18T23:38:41.182Z,3.72
2019-03-18T23:41:09.052Z,3.69
2019-03-18T23:43:36.815Z,3.62
2019-03-18T23:46:04.579Z,3.64
2019-03-18T23:48:33.365Z,3.58
2019-03-18T23:51:01.437Z,3.47
2019-03-18T23:53:30.118Z,3.51
2019-03-18T23:55:58.190Z,3.63
2019-03-18T23:58:26.064Z,3.53
